createdAt,value
2018-12-04T16:54:17.345Z,1020.06
2018-12-04T16:54:58.113Z,1020.04
2018-12-04T16:55:38.798Z,1020.06
2018-12-04T16:56:19.500Z,1020.11
2018-12-04T16:57:00.180Z,1020.08
2018-12-04T16:57:40.986Z,1020.09
2018-12-04T16:58:21.774Z,1020.1
2018-12-04T16:59:02.454Z,1020.09
2018-12-04T16:59:43.184Z,1020.11
2018-12-04T17:00:23.978Z,1020.09
2018-12-04T17:01:04.797Z,1020.1
2018-12-04T17:01:45.510Z,1020.13
2018-12-04T17:02:26.196Z,1020.09
2018-12-04T17:03:06.894Z,1020.16
2018-12-04T17:03:47.624Z,1020.22
2018-12-04T17:04:28.442Z,1020.15
2018-12-04T17:05:09.210Z,1020.19
2018-12-04T17:05:49.947Z,1020.22
2018-12-04T17:06:30.640Z,1020.21
2018-12-04T17:07:11.381Z,1020.23
2018-12-04T17:07:52.167Z,1020.19
2018-12-04T17:08:32.970Z,1020.25
2018-12-04T17:09:13.736Z,1020.26
2018-12-04T17:09:54.462Z,1020.29
2018-12-04T17:10:35.212Z,1020.28
2018-12-04T17:11:15.965Z,1020.26
2018-12-04T17:11:56.753Z,1020.23
2018-12-04T17:12:37.483Z,1020.24
2018-12-04T17:13:18.291Z,1020.18
2018-12-04T17:13:59.118Z,1020.23
2018-12-04T17:14:39.767Z,1020.2
2018-12-04T17:15:20.584Z,1020.22
2018-12-04T17:16:01.347Z,1020.25
2018-12-04T17:16:42.111Z,1020.22
2018-12-04T17:17:22.795Z,1020.25
2018-12-04T17:18:03.487Z,1020.25
2018-12-04T17:18:44.272Z,1020.26
2018-12-04T17:19:25.068Z,1020.26
2018-12-04T17:20:05.792Z,1020.29
2018-12-04T17:20:46.541Z,1020.31
2018-12-04T17:21:27.247Z,1020.31
2018-12-04T17:22:07.930Z,1020.31
2018-12-04T17:22:48.631Z,1020.31
2018-12-04T17:23:29.331Z,1020.3
2018-12-04T17:24:10.131Z,1020.33
2018-12-04T17:24:50.827Z,1020.33
2018-12-04T17:25:31.576Z,1020.29
2018-12-04T17:26:12.346Z,1020.31
2018-12-04T17:26:53.151Z,1020.29
2018-12-04T17:27:33.871Z,1020.32
2018-12-04T17:28:14.603Z,1020.32
2018-12-04T17:28:55.279Z,1020.29
2018-12-04T17:29:35.976Z,1020.29
2018-12-04T17:30:16.779Z,1020.31
2018-12-04T17:30:57.497Z,1020.33
2018-12-04T17:31:38.290Z,1020.34
2018-12-04T17:32:19.063Z,1020.35
2018-12-04T17:32:59.830Z,1020.33
2018-12-04T17:33:40.617Z,1020.32
2018-12-04T17:34:21.343Z,1020.33
2018-12-04T17:35:02.010Z,1020.34
2018-12-04T17:35:42.713Z,1020.35
2018-12-04T17:36:23.424Z,1020.37
2018-12-04T17:37:04.211Z,1020.34
2018-12-04T17:37:44.990Z,1020.37
2018-12-04T17:38:25.753Z,1020.36
2018-12-04T17:39:06.436Z,1020.36
2018-12-04T17:39:47.148Z,1020.36
2018-12-04T17:40:27.866Z,1020.36
2018-12-04T17:41:08.649Z,1020.35
2018-12-04T17:41:49.389Z,1020.38
2018-12-04T17:42:30.095Z,1020.44
2018-12-04T17:43:10.903Z,1020.38
2018-12-04T17:43:51.652Z,1020.41
2018-12-04T17:44:32.445Z,1020.37
2018-12-04T17:45:13.180Z,1020.44
2018-12-04T17:45:53.887Z,1020.43
2018-12-04T17:46:34.730Z,1020.42
2018-12-04T17:47:15.447Z,1020.45
2018-12-04T17:47:56.139Z,1020.46
2018-12-04T17:48:36.865Z,1020.4
2018-12-04T17:49:17.540Z,1020.44
2018-12-04T17:49:58.389Z,1020.45
2018-12-04T17:50:39.132Z,1020.46
2018-12-04T17:51:19.880Z,1020.44
2018-12-04T17:52:00.661Z,1020.45
2018-12-04T17:52:41.416Z,1020.46
2018-12-04T17:53:22.166Z,1020.46
2018-12-04T17:54:02.852Z,1020.48
2018-12-04T17:54:43.579Z,1020.47
2018-12-04T17:55:24.280Z,1020.48
2018-12-04T17:56:05.030Z,1020.49
2018-12-04T17:56:45.819Z,1020.52
2018-12-04T17:57:26.629Z,1020.52
2018-12-04T17:58:07.341Z,1020.51
2018-12-04T17:58:48.067Z,1020.53
2018-12-04T17:59:28.850Z,1020.54
2018-12-04T18:00:09.580Z,1020.56
2018-12-04T18:00:50.236Z,1020.58
2018-12-04T18:01:30.968Z,1020.57
2018-12-04T18:02:11.665Z,1020.51
2018-12-04T18:02:52.478Z,1020.59
2018-12-04T18:03:33.240Z,1020.56
2018-12-04T18:04:14.045Z,1020.56
2018-12-04T18:04:54.815Z,1020.57
2018-12-04T18:05:35.502Z,1020.58
2018-12-04T18:06:16.172Z,1020.62
2018-12-04T18:06:56.910Z,1020.62
2018-12-04T18:07:37.709Z,1020.61
2018-12-04T18:08:18.432Z,1020.6
2018-12-04T18:08:59.147Z,1020.62
2018-12-04T18:09:39.895Z,1020.61
2018-12-04T18:10:20.672Z,1020.61
2018-12-04T18:11:01.553Z,1020.61
2018-12-04T18:11:42.236Z,1020.64
2018-12-04T18:12:22.925Z,1020.64
2018-12-04T18:13:03.640Z,1020.63
2018-12-04T18:13:44.391Z,1020.64
2018-12-04T18:14:25.148Z,1020.63
2018-12-04T18:15:05.929Z,1020.64
2018-12-04T18:15:46.691Z,1020.69
2018-12-04T18:16:27.442Z,1020.7
2018-12-04T18:17:08.213Z,1020.71
2018-12-04T18:17:49.011Z,1020.74
2018-12-04T18:18:29.697Z,1020.72
2018-12-04T18:19:10.412Z,1020.76
2018-12-04T18:19:51.114Z,1020.73
2018-12-04T18:20:31.966Z,1020.74
2018-12-04T18:21:12.718Z,1020.75
2018-12-04T18:21:53.417Z,1020.74
2018-12-04T18:22:34.922Z,1020.76
2018-12-04T18:23:16.651Z,1020.76
2018-12-04T18:23:57.622Z,1020.72
2018-12-04T18:24:38.354Z,1020.71
2018-12-04T18:25:19.113Z,1020.75
2018-12-04T18:25:59.890Z,1020.72
2018-12-04T18:26:40.637Z,1020.71
2018-12-04T18:27:21.363Z,1020.75
2018-12-04T18:28:02.113Z,1020.72
2018-12-04T18:28:42.851Z,1020.72
2018-12-04T18:29:23.634Z,1020.73
2018-12-04T18:30:04.396Z,1020.67
2018-12-04T18:30:45.154Z,1020.69
2018-12-04T18:31:25.845Z,1020.7
2018-12-04T18:32:06.560Z,1020.75
2018-12-04T18:32:47.279Z,1020.72
2018-12-04T18:33:28.043Z,1020.74
2018-12-04T18:34:08.842Z,1020.75
2018-12-04T18:34:49.524Z,1020.78
2018-12-04T18:35:30.332Z,1020.77
2018-12-04T18:36:11.134Z,1020.8
2018-12-04T18:36:51.939Z,1020.8
2018-12-04T18:37:32.714Z,1020.82
2018-12-04T18:38:13.457Z,1020.83
2018-12-04T18:38:54.192Z,1020.81
2018-12-04T18:39:34.896Z,1020.8
2018-12-04T18:40:15.655Z,1020.77
2018-12-04T18:40:56.722Z,1020.74
2018-12-04T18:41:37.229Z,1020.77
2018-12-04T18:42:17.936Z,1020.76
2018-12-04T18:42:58.660Z,1020.74
2018-12-04T18:43:39.507Z,1020.79
2018-12-04T18:44:20.260Z,1020.77
2018-12-04T18:45:01.050Z,1020.8
2018-12-04T18:45:41.767Z,1020.79
2018-12-04T18:46:22.564Z,1020.83
2018-12-04T18:47:03.386Z,1020.8
2018-12-04T18:47:44.164Z,1020.79
2018-12-04T18:48:24.943Z,1020.79
2018-12-04T18:49:05.646Z,1020.83
2018-12-04T18:49:46.479Z,1020.8
2018-12-04T18:50:27.111Z,1020.77
2018-12-04T18:51:07.882Z,1020.78
2018-12-04T18:51:48.627Z,1020.75
2018-12-04T18:52:29.348Z,1020.79
2018-12-04T18:53:10.169Z,1020.74
2018-12-04T18:53:50.955Z,1020.76
2018-12-04T18:54:31.762Z,1020.77
2018-12-04T18:55:12.442Z,1020.79
2018-12-04T18:55:53.177Z,1020.8
2018-12-04T18:56:33.993Z,1020.79
2018-12-04T18:57:14.720Z,1020.79
2018-12-04T18:57:55.484Z,1020.77
2018-12-04T18:58:36.160Z,1020.76
2018-12-04T18:59:16.882Z,1020.79
2018-12-04T18:59:57.763Z,1020.79
2018-12-04T19:00:38.492Z,1020.78
2018-12-04T19:01:19.202Z,1020.82
2018-12-04T19:01:59.988Z,1020.81
2018-12-04T19:02:40.754Z,1020.85
2018-12-04T19:03:21.575Z,1020.8
2018-12-04T19:04:02.261Z,1020.84
2018-12-04T19:04:43.002Z,1020.86
2018-12-04T19:05:23.741Z,1020.85
2018-12-04T19:06:04.525Z,1020.87
2018-12-04T19:06:45.367Z,1020.87
2018-12-04T19:07:26.154Z,1020.85
2018-12-04T19:08:06.855Z,1020.89
2018-12-04T19:08:47.625Z,1020.85
2018-12-04T19:09:28.363Z,1020.87
2018-12-04T19:10:09.100Z,1020.88
2018-12-04T19:10:49.779Z,1020.87
2018-12-04T19:11:30.560Z,1020.88
2018-12-04T19:12:11.272Z,1020.89
2018-12-04T19:12:52.034Z,1020.94
2018-12-04T19:13:32.794Z,1020.93
2018-12-04T19:14:13.493Z,1020.95
2018-12-04T19:14:54.272Z,1020.98
2018-12-04T19:15:35.053Z,1020.99
2018-12-04T19:16:15.957Z,1020.98
2018-12-04T19:16:56.656Z,1020.99
2018-12-04T19:17:37.366Z,1020.98
2018-12-04T19:18:18.131Z,1020.97
2018-12-04T19:18:58.831Z,1020.99
2018-12-04T19:19:39.567Z,1020.98
2018-12-04T19:20:20.255Z,1020.98
2018-12-04T19:21:01.027Z,1020.99
2018-12-04T19:21:41.804Z,1020.99
2018-12-04T19:22:22.618Z,1020.97
2018-12-04T19:23:03.367Z,1021.01
2018-12-04T19:23:44.090Z,1021.02
2018-12-04T19:24:24.789Z,1020.97
2018-12-04T19:25:05.521Z,1021.01
2018-12-04T19:25:46.306Z,1020.99
2018-12-04T19:26:27.044Z,1021.03
2018-12-04T19:27:07.791Z,1020.97
2018-12-04T19:27:48.604Z,1021
2018-12-04T19:28:29.388Z,1020.98
2018-12-04T19:29:10.181Z,1021.01
2018-12-04T19:29:50.938Z,1021
2018-12-04T19:30:31.678Z,1021.01
2018-12-04T19:31:12.428Z,1021.02
2018-12-04T19:31:53.176Z,1020.99
2018-12-04T19:32:33.877Z,1021.02
2018-12-04T19:33:14.604Z,1021.04
2018-12-04T19:33:55.351Z,1021.07
2018-12-04T19:34:36.165Z,1021.03
2018-12-04T19:35:16.885Z,1021.05
2018-12-04T19:35:57.618Z,1021.05
2018-12-04T19:36:38.430Z,1021.04
2018-12-04T19:37:19.232Z,1021.06
2018-12-04T19:38:00.045Z,1021.05
2018-12-04T19:38:40.744Z,1021.05
2018-12-04T19:39:21.472Z,1021.1
2018-12-04T19:40:02.207Z,1021.07
2018-12-04T19:40:43.003Z,1021
2018-12-04T19:41:23.901Z,1021.06
2018-12-04T19:42:04.718Z,1021.1
2018-12-04T19:42:45.448Z,1021.05
2018-12-04T19:43:26.185Z,1021.09
2018-12-04T19:44:06.973Z,1021.06
2018-12-04T19:44:47.739Z,1021.05
2018-12-04T19:45:28.460Z,1021.05
2018-12-04T19:46:09.182Z,1021.03
2018-12-04T19:46:49.981Z,1021.05
2018-12-04T19:47:30.781Z,1021.05
2018-12-04T19:48:11.526Z,1021.06
2018-12-04T19:48:52.377Z,1021.07
2018-12-04T19:49:33.093Z,1021.06
2018-12-04T19:50:13.838Z,1021.06
2018-12-04T19:50:54.641Z,1021.09
2018-12-04T19:51:35.461Z,1021.1
2018-12-04T19:52:16.268Z,1021.11
2018-12-04T19:52:57.004Z,1021.08
2018-12-04T19:53:37.723Z,1021.1
2018-12-04T19:54:18.490Z,1021.09
2018-12-04T19:54:59.313Z,1021.12
2018-12-04T19:55:40.088Z,1021.07
2018-12-04T19:56:20.835Z,1021.11
2018-12-04T19:57:01.558Z,1021.07
2018-12-04T19:57:42.309Z,1021.07
2018-12-04T19:58:23.131Z,1021.11
2018-12-04T19:59:03.882Z,1021.08
2018-12-04T19:59:44.694Z,1021.1
2018-12-04T20:00:25.434Z,1021.1
2018-12-04T20:01:06.236Z,1021.09
2018-12-04T20:01:47.048Z,1021.11
2018-12-04T20:02:27.764Z,1021.09
2018-12-04T20:03:08.536Z,1021.1
2018-12-04T20:03:49.347Z,1021.12
2018-12-04T20:04:30.043Z,1021.12
2018-12-04T20:05:10.919Z,1021.12
2018-12-04T20:05:51.636Z,1021.12
2018-12-04T20:06:32.366Z,1021.1
2018-12-04T20:07:13.149Z,1021.1
2018-12-04T20:07:53.890Z,1021.12
2018-12-04T20:08:34.710Z,1021.08
2018-12-04T20:09:15.401Z,1021.09
2018-12-04T20:09:56.134Z,1021.11
2018-12-04T20:10:36.927Z,1021.1
2018-12-04T20:11:17.645Z,1021.1
2018-12-04T20:11:58.382Z,1021.09
2018-12-04T20:12:39.097Z,1021.04
2018-12-04T20:13:19.864Z,1021.06
2018-12-04T20:14:00.852Z,1021.05
2018-12-04T20:14:41.729Z,1021.06
2018-12-04T20:15:22.428Z,1021.08
2018-12-04T20:16:03.130Z,1021.1
2018-12-04T20:16:43.904Z,1021.12
2018-12-04T20:17:25.284Z,1021.08
2018-12-04T20:18:06.104Z,1021.08
2018-12-04T20:18:46.820Z,1021.06
2018-12-04T20:19:27.579Z,1021.08
2018-12-04T20:20:08.387Z,1021.1
2018-12-04T20:20:49.154Z,1021.09
2018-12-04T20:21:29.926Z,1021.08
2018-12-04T20:22:10.659Z,1021.08
2018-12-04T20:22:51.368Z,1021.07
2018-12-04T20:23:32.075Z,1021.1
2018-12-04T20:24:12.928Z,1021.07
2018-12-04T20:24:53.709Z,1021.11
2018-12-04T20:25:34.501Z,1021.06
2018-12-04T20:26:15.255Z,1021.11
2018-12-04T20:26:55.993Z,1021.13
2018-12-04T20:27:36.812Z,1021.14
2018-12-04T20:28:17.647Z,1021.09
2018-12-04T20:28:58.341Z,1021.14
2018-12-04T20:29:39.136Z,1021.14
2018-12-04T20:30:19.903Z,1021.14
2018-12-04T20:31:00.702Z,1021.15
2018-12-04T20:31:41.511Z,1021.18
2018-12-04T20:32:22.316Z,1021.22
2018-12-04T20:33:03.045Z,1021.21
2018-12-04T20:33:43.769Z,1021.21
2018-12-04T20:34:24.565Z,1021.19
2018-12-04T20:35:05.368Z,1021.2
2018-12-04T20:35:46.140Z,1021.19
2018-12-04T20:36:26.952Z,1021.18
2018-12-04T20:37:07.709Z,1021.19
2018-12-04T20:37:48.500Z,1021.18
2018-12-04T20:38:29.357Z,1021.17
2018-12-04T20:39:10.177Z,1021.2
2018-12-04T20:39:50.913Z,1021.19
2018-12-04T20:40:31.938Z,1021.21
2018-12-04T20:41:12.588Z,1021.2
2018-12-04T20:41:53.291Z,1021.22
2018-12-04T20:42:34.042Z,1021.25
2018-12-04T20:43:14.742Z,1021.22
2018-12-04T20:43:55.534Z,1021.21
2018-12-04T20:44:36.297Z,1021.24
2018-12-04T20:45:17.032Z,1021.2
2018-12-04T20:45:57.846Z,1021.18
2018-12-04T20:46:38.624Z,1021.17
2018-12-04T20:47:19.427Z,1021.21
2018-12-04T20:48:00.124Z,1021.17
2018-12-04T20:48:40.857Z,1021.17
2018-12-04T20:49:21.617Z,1021.17
2018-12-04T20:50:02.392Z,1021.14
2018-12-04T20:50:43.218Z,1021.11
2018-12-04T20:51:24.019Z,1021.12
2018-12-04T20:52:04.888Z,1021.11
2018-12-04T20:52:45.822Z,1021.13
2018-12-04T20:53:26.647Z,1021.13
2018-12-04T20:54:07.428Z,1021.13
2018-12-04T20:54:48.146Z,1021.12
2018-12-04T20:55:28.904Z,1021.13
2018-12-04T20:56:09.669Z,1021.1
2018-12-04T20:56:50.476Z,1021.12
2018-12-04T20:57:31.273Z,1021.15
2018-12-04T20:58:12.092Z,1021.11
2018-12-04T20:58:52.837Z,1021.09
2018-12-04T20:59:33.579Z,1021.09
2018-12-04T21:00:14.290Z,1021.08
2018-12-04T21:00:55.072Z,1021.12
2018-12-04T21:01:35.866Z,1021.04
2018-12-04T21:02:16.596Z,1021.06
2018-12-04T21:02:57.367Z,1021.07
2018-12-04T21:03:38.163Z,1021.05
2018-12-04T21:04:18.944Z,1021.06
2018-12-04T21:04:59.756Z,1021.07
2018-12-04T21:05:40.459Z,1021.11
2018-12-04T21:06:21.249Z,1021.11
2018-12-04T21:07:02.319Z,1021.11
2018-12-04T21:07:43.197Z,1021.11
2018-12-04T21:08:23.967Z,1021.12
2018-12-04T21:09:04.754Z,1021.12
2018-12-04T21:09:45.500Z,1021.1
2018-12-04T21:10:26.216Z,1021.09
2018-12-04T21:11:07.054Z,1021.08
2018-12-04T21:11:47.793Z,1021.12
2018-12-04T21:12:28.522Z,1021.11
2018-12-04T21:13:14.412Z,1021.1
2018-12-04T21:13:50.098Z,1021.09
2018-12-04T21:14:30.852Z,1021.09
2018-12-04T21:15:11.546Z,1021.12
2018-12-04T21:15:52.301Z,1021.1
2018-12-04T21:16:33.143Z,1021.13
2018-12-04T21:17:14.053Z,1021.09
2018-12-04T21:17:54.875Z,1021.07
2018-12-04T21:18:35.601Z,1021.07
2018-12-04T21:19:16.322Z,1021.06
2018-12-04T21:19:57.173Z,1021.07
2018-12-04T21:20:37.980Z,1021.03
2018-12-04T21:21:18.956Z,1021.05
2018-12-04T21:21:59.646Z,1021.05
2018-12-04T21:22:40.448Z,1021.03
2018-12-04T21:23:21.401Z,1021.04
2018-12-04T21:24:02.317Z,1021.07
2018-12-04T21:24:43.426Z,1021.06
2018-12-04T21:25:24.258Z,1021.08
2018-12-04T21:26:04.989Z,1021.07
2018-12-04T21:26:45.758Z,1021.06
2018-12-04T21:27:26.607Z,1021.07
2018-12-04T21:28:07.353Z,1021.07
2018-12-04T21:28:48.970Z,1021.08
2018-12-04T21:29:29.639Z,1021.06
2018-12-04T21:30:10.377Z,1021.07
2018-12-04T21:30:51.235Z,1021.06
2018-12-04T21:31:31.986Z,1021.06
2018-12-04T21:32:12.718Z,1021.07
2018-12-04T21:32:53.620Z,1021.08
2018-12-04T21:33:34.419Z,1021.06
2018-12-04T21:34:15.246Z,1021.05
2018-12-04T21:34:55.934Z,1021.05
2018-12-04T21:35:36.785Z,1021.06
2018-12-04T21:36:17.748Z,1021.08
2018-12-04T21:36:58.521Z,1021.05
2018-12-04T21:37:39.402Z,1021.04
2018-12-04T21:38:20.070Z,1021
2018-12-04T21:39:00.869Z,1021.04
2018-12-04T21:39:42.384Z,1021.04
2018-12-04T21:40:23.095Z,1021.02
2018-12-04T21:41:03.837Z,1020.99
2018-12-04T21:41:44.824Z,1021.01
2018-12-04T21:42:26.432Z,1021.02
2018-12-04T21:43:07.303Z,1021.02
2018-12-04T21:43:48.059Z,1021.01
2018-12-04T21:44:28.782Z,1021.05
2018-12-04T21:45:10.041Z,1021.07
2018-12-04T21:45:50.789Z,1021.03
2018-12-04T21:46:31.629Z,1021.03
2018-12-04T21:47:12.448Z,1021.01
2018-12-04T21:47:53.270Z,1021.01
2018-12-04T21:48:34.170Z,1021
2018-12-04T21:49:14.951Z,1021.03
2018-12-04T21:49:55.764Z,1021.02
2018-12-04T21:50:36.593Z,1021.04
2018-12-04T21:51:17.415Z,1021.03
2018-12-04T21:51:58.824Z,1021.04
2018-12-04T21:52:39.667Z,1021.07
2018-12-04T21:53:20.467Z,1021.08
2018-12-04T21:54:01.258Z,1021.11
2018-12-04T21:54:42.038Z,1021.12
2018-12-04T21:55:22.828Z,1021.13
2018-12-04T21:56:03.586Z,1021.11
2018-12-04T21:56:44.479Z,1021.11
2018-12-04T21:57:25.301Z,1021.11
2018-12-04T21:58:06.177Z,1021.12
2018-12-04T21:58:47.184Z,1021.12
2018-12-04T21:59:28.296Z,1021.13
2018-12-04T22:00:09.200Z,1021.12
2018-12-04T22:00:50.125Z,1021.15
2018-12-04T22:01:30.980Z,1021.14
2018-12-04T22:02:11.750Z,1021.13
2018-12-04T22:02:52.523Z,1021.11
2018-12-04T22:03:33.365Z,1021.13
2018-12-04T22:04:14.136Z,1021.11
2018-12-04T22:04:54.940Z,1021.12
2018-12-04T22:05:35.697Z,1021.11
2018-12-04T22:06:16.461Z,1021.08
2018-12-04T22:06:57.279Z,1021.06
2018-12-04T22:07:38.048Z,1021.08
2018-12-04T22:08:18.783Z,1021.1
2018-12-04T22:08:59.526Z,1021.11
2018-12-04T22:09:40.289Z,1021.14
2018-12-04T22:10:21.161Z,1021.1
2018-12-04T22:11:01.871Z,1021.15
2018-12-04T22:11:42.620Z,1021.13
2018-12-04T22:12:23.447Z,1021.11
2018-12-04T22:13:04.222Z,1021.11
2018-12-04T22:13:45.031Z,1021.12
2018-12-04T22:14:25.732Z,1021.12
2018-12-04T22:15:06.487Z,1021.09
2018-12-04T22:15:47.352Z,1021.13
2018-12-04T22:16:28.214Z,1021.13
2018-12-04T22:17:08.981Z,1021.13
2018-12-04T22:17:49.715Z,1021.13
2018-12-04T22:18:30.563Z,1021.13
2018-12-04T22:19:11.397Z,1021.11
2018-12-04T22:19:52.318Z,1021.11
2018-12-04T22:20:33.059Z,1021.16
2018-12-04T22:21:13.762Z,1021.14
2018-12-04T22:21:54.533Z,1021.15
2018-12-04T22:22:35.340Z,1021.13
2018-12-04T22:23:16.158Z,1021.17
2018-12-04T22:23:56.945Z,1021.17
2018-12-04T22:24:37.680Z,1021.15
2018-12-04T22:25:18.476Z,1021.14
2018-12-04T22:25:59.289Z,1021.16
2018-12-04T22:26:40.173Z,1021.19
2018-12-04T22:27:20.928Z,1021.17
2018-12-04T22:28:01.643Z,1021.16
2018-12-04T22:28:42.373Z,1021.18
2018-12-04T22:29:23.152Z,1021.16
2018-12-04T22:30:03.936Z,1021.16
2018-12-04T22:30:44.763Z,1021.19
2018-12-04T22:31:25.522Z,1021.13
2018-12-04T22:32:06.239Z,1021.15
2018-12-04T22:32:47.063Z,1021.13
2018-12-04T22:33:27.996Z,1021.15
2018-12-04T22:34:08.783Z,1021.08
2018-12-04T22:34:49.488Z,1021.08
2018-12-04T22:35:30.264Z,1021.08
2018-12-04T22:36:11.151Z,1021.08
2018-12-04T22:36:51.945Z,1021.06
2018-12-04T22:37:32.865Z,1021.04
2018-12-04T22:38:13.792Z,1021.05
2018-12-04T22:38:54.528Z,1021.02
2018-12-04T22:39:35.248Z,1021.06
2018-12-04T22:40:16.170Z,1021.05
2018-12-04T22:40:57.493Z,1021.04
2018-12-04T22:41:38.205Z,1021.04
2018-12-04T22:42:18.988Z,1021.02
2018-12-04T22:42:59.759Z,1021.03
2018-12-04T22:43:40.675Z,1021.03
2018-12-04T22:44:21.447Z,1021.04
2018-12-04T22:45:02.113Z,1021.03
2018-12-04T22:45:42.964Z,1021.01
2018-12-04T22:46:23.970Z,1021
2018-12-04T22:47:04.659Z,1021.03
2018-12-04T22:47:45.378Z,1021
2018-12-04T22:48:26.127Z,1021.01
2018-12-04T22:49:06.996Z,1020.98
2018-12-04T22:49:47.738Z,1021.02
2018-12-04T22:50:28.417Z,1021.03
2018-12-04T22:51:09.220Z,1020.97
2018-12-04T22:51:50.005Z,1020.99
2018-12-04T22:52:30.821Z,1020.93
2018-12-04T22:53:11.653Z,1020.92
2018-12-04T22:53:52.457Z,1020.97
2018-12-04T22:54:33.174Z,1020.98
2018-12-04T22:55:13.895Z,1020.94
2018-12-04T22:55:54.736Z,1020.92
2018-12-04T22:56:35.506Z,1020.93
2018-12-04T22:57:16.269Z,1020.9
2018-12-04T22:57:56.965Z,1020.88
2018-12-04T22:58:37.696Z,1020.88
2018-12-04T22:59:18.479Z,1020.9
2018-12-04T22:59:59.236Z,1020.89
2018-12-04T23:00:39.941Z,1020.91
2018-12-04T23:01:20.667Z,1020.9
2018-12-04T23:02:01.503Z,1020.9
2018-12-04T23:02:42.320Z,1020.88
2018-12-04T23:03:23.037Z,1020.89
2018-12-04T23:04:03.806Z,1020.91
2018-12-04T23:04:44.517Z,1020.92
2018-12-04T23:05:25.436Z,1020.9
2018-12-04T23:06:06.190Z,1020.91
2018-12-04T23:06:47.071Z,1020.91
2018-12-04T23:07:27.836Z,1020.91
2018-12-04T23:08:08.597Z,1020.92
2018-12-04T23:08:49.319Z,1020.94
2018-12-04T23:09:30.081Z,1020.94
2018-12-04T23:10:10.802Z,1020.92
2018-12-04T23:10:51.580Z,1020.94
2018-12-04T23:11:32.409Z,1020.97
2018-12-04T23:12:13.156Z,1020.92
2018-12-04T23:12:53.861Z,1020.95
2018-12-04T23:13:34.545Z,1020.9
2018-12-04T23:14:15.265Z,1020.91
2018-12-04T23:14:56.058Z,1020.9
2018-12-04T23:15:36.871Z,1020.93
2018-12-04T23:16:17.608Z,1020.92
2018-12-04T23:16:58.362Z,1020.88
2018-12-04T23:17:39.134Z,1020.91
2018-12-04T23:18:19.980Z,1020.89
2018-12-04T23:19:00.768Z,1020.88
2018-12-04T23:19:41.499Z,1020.88
2018-12-04T23:20:22.291Z,1020.92
2018-12-04T23:21:03.084Z,1020.91
2018-12-04T23:21:43.760Z,1020.93
2018-12-04T23:22:24.481Z,1020.95
2018-12-04T23:23:05.190Z,1020.92
2018-12-04T23:23:45.982Z,1020.93
2018-12-04T23:24:26.759Z,1020.93
2018-12-04T23:25:07.466Z,1020.93
2018-12-04T23:25:48.255Z,1020.88
2018-12-04T23:26:29.109Z,1020.88
2018-12-04T23:27:09.912Z,1020.91
2018-12-04T23:27:50.735Z,1020.86
2018-12-04T23:28:31.440Z,1020.89
2018-12-04T23:29:12.117Z,1020.88
2018-12-04T23:29:52.873Z,1020.92
2018-12-04T23:30:33.646Z,1020.94
2018-12-04T23:31:14.456Z,1020.91
2018-12-04T23:31:55.170Z,1020.93
2018-12-04T23:32:35.942Z,1020.93
2018-12-04T23:33:16.687Z,1020.95
2018-12-04T23:33:57.457Z,1020.93
2018-12-04T23:34:38.183Z,1020.97
2018-12-04T23:35:18.924Z,1020.95
2018-12-04T23:35:59.657Z,1020.97
2018-12-04T23:36:40.472Z,1021
2018-12-04T23:37:21.259Z,1021.01
2018-12-04T23:38:02.095Z,1020.97
2018-12-04T23:38:42.839Z,1021
2018-12-04T23:39:23.545Z,1020.96
2018-12-04T23:40:04.244Z,1020.98
2018-12-04T23:40:44.925Z,1020.97
2018-12-04T23:41:25.748Z,1020.97
2018-12-04T23:42:06.504Z,1020.93
2018-12-04T23:42:47.257Z,1020.93
2018-12-04T23:43:28.044Z,1020.92
2018-12-04T23:44:08.853Z,1020.93
2018-12-04T23:44:49.653Z,1020.95
2018-12-04T23:45:30.354Z,1020.95
2018-12-04T23:46:11.063Z,1020.97
2018-12-04T23:46:51.799Z,1020.97
2018-12-04T23:47:32.601Z,1020.95
2018-12-04T23:48:13.344Z,1020.96
2018-12-04T23:48:54.141Z,1020.95
2018-12-04T23:49:34.914Z,1020.95
2018-12-04T23:50:15.632Z,1020.96
2018-12-04T23:50:56.418Z,1020.96
2018-12-04T23:51:37.202Z,1020.92
2018-12-04T23:52:17.912Z,1020.95
2018-12-04T23:52:58.617Z,1020.92
2018-12-04T23:53:39.331Z,1020.95
2018-12-04T23:54:20.142Z,1020.95
2018-12-04T23:55:00.869Z,1020.97
2018-12-04T23:55:41.621Z,1020.94
2018-12-04T23:56:22.402Z,1020.92
2018-12-04T23:57:03.191Z,1020.89
2018-12-04T23:57:43.977Z,1020.94
2018-12-04T23:58:24.724Z,1020.9
2018-12-04T23:59:05.484Z,1020.88
2018-12-04T23:59:46.312Z,1020.93
